Aktualne dane pomiarowe

Uwaga, wersja testowa! Automatyczne pobieranie danych za pomocą narzędzi lub skryptów to umożliwiających jest zabronione.

Dane meteo z obszaru Polski uzyskane na podstawie depesz SYNOP pobieranych co godzinę z NWS. Najedź myszką na symbol przedstawiony w tabeli, aby uzyskać informacje co do jego znaczenia. Prosimy pamiętać, że to testowa wersja strony, która jeszcze nie jest ukończona. Stworzono również jest krótki FAQ dotyczący korzystania z tej podstrony Anomalie temperatury w chwili obecnej odniesione są do okresu referencyjnego 1951-2016. Okres ten będzie później zmieniony na 1981-2010. Kliknij ikonę aby pobrać plik CSV. Kliknij ikonę aby wygenerować mapę synoptyczną dla danego terminu.

Wybierz Datę:    

        

Racibórz (12540)

Dane terminowe dla wybranej stacji. Kliknij datę, aby otrzymać dane z tego terminu dla wszystkich stacji.

TemperaturaZachmurzenieWiatrCiśnienieOpadyPogoda
 Data t td wb tx tn tg rh  Nt Nl Cl Cm Ch ws wd g1 g2 wx mslp ppp ch 24h 12h t ww ww w1 w2  
2019-07-20 23:00:00 18.4 15.3 16.3--- 8213.0wx-wx2wx--21015.9 991.6 0.2---------
2019-07-20 22:00:00 18.6 15.8 16.6--- 8415.0wx-wx1wx--11015.9 991.7 0.6---------
2019-07-20 21:00:00 20.8 15.8 17.4--- 7320.0wx-wx2wx---1015.6 991.5 0.6---------
2019-07-20 20:00:00 21.6 15.0 17.3--- 6620.0wx-wx1wx--11015.4 991.4 0.5---------
2019-07-20 19:00:00 23.6 14.0 17.5--- 5530.0wx-wx2wx--21014.9 991.1 0.1---------
2019-07-20 18:00:00 27.7 14.0 19.1 30.1 18.2- 4340.0wx-wxwx1wx--11014.4 990.9 -0.3- 0.012------
2019-07-20 17:00:00 28.8 11.8 18.5--- 3535.0wxwxwxwxwx3wx--31014.3 990.9 -0.6---------
2019-07-20 16:00:00 28.9 11.5 18.4--- 3430.0wxwxwxwx3wx--31014.4 991.0 -0.8---------
2019-07-20 15:00:00 29.7 11.2 18.6--- 3235.0wxwxwxwxwx4wx--41014.5 991.2 -0.9---------
2019-07-20 14:00:00 28.9 11.5 18.4--- 3429.0wxwxwxwxwx3wx--31014.9 991.5 -1.3---------
2019-07-20 13:00:00 28.7 13.0 19.0--- 3830.0wxwxwxwxwx3wx--31015.2 991.8 -1.3---------
2019-07-20 12:00:00 27.4 13.3 18.7--- 4226.0wxwxwxwxwx2wx-721015.6 992.1 -1.3- 0.06------
2019-07-20 11:00:00 26.1 14.5 18.8--- 4927.0wxwxwxwx2wx--21016.5 992.8 -0.5---------
2019-07-20 10:00:00 25.4 14.8 18.6--- 5222.0wxwxwxwxwx1wx--11016.8 993.1 -0.2---------
2019-07-20 09:00:00 23.6 15.6 18.4--- 6125.0wxwxwxwxwx2wx--21017.3 993.4 0.2---------
2019-07-20 08:00:00 22.2 15.3 17.7--- 6528.0wxwxwxwxwx2wx--21017.3 993.3 0.4---------
2019-07-20 07:00:00 20.5 16.5 17.7--- 7814.0wx-wx2wx--21017.4 993.3 0.7---------
2019-07-20 06:00:00 18.2 16.5 17.0 20.1 15.1 14 907.0wx-wx1wx--11017.5 993.2 0.8 2.5 1.012wx-- 6.4
2019-07-20 05:00:00 16.8 15.7 16.0--- 934.6wx-wx2wx---1017.3 992.9 0.5---wx---
2019-07-20 04:00:00 16.2 14.9 15.3--- 927.0wxwxwxwx2wx--21017.1 992.6 0.3---wx---
2019-07-20 03:00:00 16.0 14.9 15.2--- 936.0wxwxwxwx2wx--21016.9 992.4 0.3---wx---
2019-07-20 02:00:00 15.8 14.7 15.0--- 936.0wx-wx0---01016.9 992.4 0.5---wx---
2019-07-20 01:00:00 15.2 14.2 14.5--- 945.0wx-wxwx1wx--11016.8 992.3 0.2---wx---
2019-07-20 00:00:00 15.9 14.8 15.1--- 933.2wx-wx0---01016.6 992.1 0.0- 1.06wx-w1w2--
2019-07-19 23:00:00 16.7 15.4 15.8--- 926.0wx-wx1wx---1016.3 991.9 -0.2---wx---
2019-07-19 22:00:00 17.2 16.2 16.5--- 945.0wx-wx2wx--21016.5 992.1 0.3---wx---
2019-07-19 21:00:00 17.5 16.2 16.6--- 9210.0wx-wx2wx--21016.4 992.1 1.2---wx-w1w2--
2019-07-19 20:00:00 17.7 15.9 16.4--- 8911.0wxwxwxwx0---01016.4 992.1 1.2---wx---
2019-07-19 19:00:00 18.3 15.2 16.2--- 8214.0wxwxwx5wx--51016.1 991.8 0.9---wx-w1--
2019-07-19 18:00:00 20.1 16.5 17.6 28.8 17.2- 8020.0wxwxwxwx3wx--31015.0 990.9 0.1- 2.012wx-w1--
2019-07-19 17:00:00 19.6 15.5 16.8--- 7720.0wxwxwxwx4wx--41015.0 990.9 -0.2---wx---
2019-07-19 16:00:00 22.2 14.1 17.0--- 6030.0wxwxwxwx3wx--31014.8 990.9 0.5---------
2019-07-19 15:00:00 23.3 14.0 17.4--- 5630.0wxwxwxwx1wx--11014.6 990.8 0.9---wx-w1--
2019-07-19 14:00:00 20.4 15.4 17.0--- 7325.0wxwxwx4wx--41015.2 991.1 1.4---wx-w1--
2019-07-19 13:00:00 22.4 14.3 17.2--- 6030.0wxwxwx2wx--21014.3 990.4 0.5---wx---
2019-07-19 12:00:00 24.9 11.5 16.8--- 4340.0wxwxwx4wx-941013.6 989.9 -0.2- 0.06------
2019-07-19 11:00:00 27.3 9.6 16.9--- 3340.0wxwxwx4wx-941013.2 989.7 -0.6---------
2019-07-19 10:00:00 27.3 8.7 16.5--- 3140.0wxwxwxwxwx5wx--51013.4 989.9 -0.6---------
2019-07-19 09:00:00 26.8 10.1 17.0--- 3535.0wxwxwxwx3wx--31013.6 990.1 -0.3---------
2019-07-19 08:00:00 25.3 11.8 17.1--- 4330.0wxwxwxwx3wx--31014.0 990.3 -0.1---------
2019-07-19 07:00:00 21.1 12.8 15.9--- 5925.0wx-wxwx2wx--21014.5 990.5 0.4---------
2019-07-19 06:00:00 17.2 11.9 13.8 23.0 10.8 10 7119.0wx-wxwx3wx--31014.7 990.4 0.2- 0.012----- 8.9
2019-07-19 05:00:00 15.3 11.9 13.0--- 8016.0wx-wx2wx--21014.9 990.4 0.1---------
2019-07-19 04:00:00 12.8 10.3 11.1--- 8518.0wx-wxwx2wx--21014.8 990.1 0.1---------
2019-07-19 03:00:00 11.2 9.3 9.9--- 8819.0wx-wxwx1wx--11015.0 990.2 0.1---------
2019-07-19 02:00:00 11.8 9.7 10.4--- 8717.0wx-wxwx1wx--11015.1 990.3 0.2---------
2019-07-19 01:00:00 12.1 9.7 10.5--- 8521.0wx-1wx--11014.8 990.0 0.2---------
2019-07-19 00:00:00 12.8 10.5 11.2--- 8614.0wx-wx0---01014.8 990.1 0.3- 0.06------
1.2 ms

 

Print Friendly, PDF & Email